Time;durP1;ratioP1;P1;durP2;ratioP2;P2;SDS_P1;SDS_P2;PMS_P1;PMS_P2;Temp;Humidity;BMP_temperature;BMP_pressure;BME280_temperature;BME280_humidity;BME280_pressure;Samples;Min_cycle;Max_cycle;Signal;HPM_P1;HPM_P2
2023/04/21 00:06:33;;;;;;;22.87;17.77;;;;;;;7.48;59.74;100395.06;20727136;28;20241;-77
2023/04/21 00:16:35;;;;;;;24.87;17.73;;;;;;;7.40;59.93;100386.25;20746595;28;20181;-76
2023/04/21 00:26:37;;;;;;;23.97;17.57;;;;;;;7.47;59.53;100382.16;20695137;28;20213;-77
2023/04/21 00:36:39;;;;;;;24.43;17.67;;;;;;;7.51;58.93;100369.94;20733645;28;20198;-77
2023/04/21 00:46:42;;;;;;;21.00;17.52;;;;;;;7.55;59.40;100367.31;20748915;28;20272;-78
2023/04/21 00:56:44;;;;;;;25.97;18.80;;;;;;;7.51;59.39;100360.69;20739634;28;20244;-77
2023/04/21 01:06:46;;;;;;;23.17;17.70;;;;;;;7.74;59.31;100365.16;20740119;28;20629;-77
2023/04/21 01:16:49;;;;;;;24.47;19.10;;;;;;;7.79;59.73;100362.22;20724973;28;20196;-77
2023/04/21 01:26:53;;;;;;;25.10;19.17;;;;;;;7.76;59.77;100360.88;20697465;28;20217;-77
2023/04/21 01:36:55;;;;;;;27.67;20.33;;;;;;;7.94;59.38;100358.97;20696398;28;20189;-77
2023/04/21 01:46:58;;;;;;;28.97;20.27;;;;;;;7.75;60.63;100355.56;20737348;28;20213;-77
2023/04/21 01:57:01;;;;;;;27.87;21.37;;;;;;;7.54;61.00;100343.19;20698314;28;20198;-82
2023/04/21 02:07:03;;;;;;;29.50;23.07;;;;;;;7.74;60.57;100337.06;20735824;28;20217;-86
2023/04/21 02:17:07;;;;;;;31.23;22.13;;;;;;;7.42;61.90;100341.81;20730066;28;20260;-79
2023/04/21 02:27:09;;;;;;;30.03;22.87;;;;;;;7.20;62.47;100361.50;20715274;28;20233;-79
2023/04/21 02:37:11;;;;;;;30.70;23.40;;;;;;;7.34;61.91;100311.72;20740820;28;20217;-77
2023/04/21 02:47:16;;;;;;;31.80;23.30;;;;;;;7.56;62.21;100338.09;20711521;28;20295;-79
2023/04/21 02:57:18;;;;;;;34.25;25.25;;;;;;;7.36;61.95;100320.63;20726193;28;20232;-79
2023/04/21 03:07:20;;;;;;;33.23;23.80;;;;;;;7.34;61.54;100324.91;20739742;28;20707;-83
2023/04/21 03:17:22;;;;;;;32.87;24.33;;;;;;;7.60;60.96;100330.69;20747519;28;20247;-80
2023/04/21 03:27:25;;;;;;;32.03;23.37;;;;;;;7.59;61.53;100327.03;20738909;28;20642;-80
2023/04/21 03:37:27;;;;;;;32.50;23.47;;;;;;;7.43;61.92;100329.44;20741888;28;20233;-79
2023/04/21 03:47:30;;;;;;;35.77;25.10;;;;;;;7.54;61.64;100343.19;20744726;28;20491;-79
2023/04/21 03:57:32;;;;;;;34.57;24.10;;;;;;;7.40;62.02;100341.28;20768203;28;20193;-80
2023/04/21 04:07:34;;;;;;;35.07;24.30;;;;;;;7.57;62.15;100320.91;20751734;28;20638;-80
2023/04/21 04:17:36;;;;;;;37.07;24.97;;;;;;;7.47;62.45;100332.44;20729967;28;20193;-83
2023/04/21 04:27:39;;;;;;;35.60;24.97;;;;;;;7.62;62.21;100322.75;20726367;28;20221;-80
2023/04/21 04:37:41;;;;;;;37.00;25.53;;;;;;;7.53;62.25;100328.31;20734464;28;20193;-84
2023/04/21 04:47:44;;;;;;;39.73;26.23;;;;;;;7.74;62.13;100325.84;20758532;28;20224;-80
2023/04/21 04:57:46;;;;;;;36.15;26.48;;;;;;;7.89;61.13;100322.56;20729936;28;20586;-81
2023/04/21 05:07:49;;;;;;;34.07;23.73;;;;;;;8.09;60.53;100336.06;20718458;28;20636;-80
2023/04/21 05:17:51;;;;;;;35.03;24.87;;;;;;;7.62;62.39;100336.78;20690791;28;20248;-85
2023/04/21 05:27:53;;;;;;;40.27;27.50;;;;;;;8.11;60.94;100328.13;20727522;28;20213;-86
2023/04/21 05:37:55;;;;;;;34.63;24.80;;;;;;;7.88;63.23;100332.16;20728468;28;20197;-88
2023/04/21 05:47:58;;;;;;;35.40;26.63;;;;;;;8.23;61.73;100349.16;20713398;28;20225;-85
2023/04/21 05:58:00;;;;;;;42.17;27.60;;;;;;;8.35;62.35;100352.16;20732287;28;20196;-82
2023/04/21 06:08:02;;;;;;;37.43;27.90;;;;;;;8.56;61.80;100330.69;20729679;28;20233;-81
2023/04/21 06:18:04;;;;;;;44.40;31.37;;;;;;;8.76;61.20;100332.09;20733964;28;20271;-81
2023/04/21 06:28:06;;;;;;;41.83;29.98;;;;;;;8.49;61.44;100324.75;20743819;28;20225;-80
2023/04/21 06:38:09;;;;;;;37.13;27.77;;;;;;;8.27;62.73;100336.09;20742277;28;20193;-81
2023/04/21 06:48:11;;;;;;;35.13;27.67;;;;;;;8.81;61.46;100329.09;20716140;28;20217;-81
2023/04/21 06:58:14;;;;;;;38.03;27.40;;;;;;;8.76;63.51;100323.63;20728307;28;20482;-84
2023/04/21 07:08:16;;;;;;;34.58;26.42;;;;;;;8.91;63.10;100325.97;20728405;28;20229;-80
2023/04/21 07:18:18;;;;;;;33.80;24.95;;;;;;;9.43;59.90;100307.00;20735933;28;20221;-81
2023/04/21 07:28:20;;;;;;;30.43;24.73;;;;;;;9.23;59.37;100306.88;20698802;28;20210;-80
2023/04/21 07:38:22;;;;;;;31.23;23.10;;;;;;;9.34;59.83;100311.81;20747964;28;20220;-80
2023/04/21 07:48:25;;;;;;;28.40;22.20;;;;;;;9.00;59.50;100306.25;20710548;28;20253;-81
2023/04/21 07:58:27;;;;;;;30.53;23.97;;;;;;;8.83;61.58;100312.69;20764498;28;20268;-81
2023/04/21 08:08:29;;;;;;;27.97;22.70;;;;;;;9.49;58.63;100307.63;20727891;28;20275;-80
2023/04/21 08:18:33;;;;;;;28.73;23.13;;;;;;;9.97;58.22;100301.66;20724604;28;20210;-86
2023/04/21 08:28:35;;;;;;;28.20;22.80;;;;;;;10.35;56.19;100306.44;20755324;28;20217;-79
2023/04/21 08:38:37;;;;;;;29.60;22.42;;;;;;;9.75;59.46;100316.88;20751259;28;20197;-80
2023/04/21 08:48:39;;;;;;;28.13;21.87;;;;;;;9.89;57.07;100317.47;20760467;28;20224;-80
2023/04/21 08:58:41;;;;;;;26.90;21.93;;;;;;;9.83;58.28;100329.25;20768855;28;20277;-86
2023/04/21 09:08:54;;;;;;;29.50;21.95;;;;;;;9.71;59.44;100317.88;20731119;28;20221;-81
2023/04/21 09:18:59;;;;;;;28.40;22.30;;;;;;;9.91;57.38;100319.97;20733070;28;20221;-88
2023/04/21 09:29:05;;;;;;;30.80;21.42;;;;;;;10.66;56.42;100312.56;20707028;28;20202;-85
2023/04/21 09:39:07;;;;;;;27.80;21.23;;;;;;;10.68;56.56;100309.41;20703164;28;20709;-86
2023/04/21 09:49:13;;;;;;;26.52;17.45;;;;;;;10.33;55.31;100312.44;20736503;28;20237;-81
2023/04/21 09:59:20;;;;;;;26.93;22.50;;;;;;;11.12;57.33;100288.09;20737106;28;20209;-86
2023/04/21 10:09:26;;;;;;;25.95;21.23;;;;;;;11.27;54.45;100288.25;20720211;28;20704;-80
2023/04/21 10:19:34;;;;;;;29.50;21.42;;;;;;;12.09;53.18;100262.84;20715936;28;20271;-80
2023/04/21 10:29:36;;;;;;;27.00;20.47;;;;;;;12.06;52.57;100274.84;20729377;28;20197;-81
2023/04/21 10:39:57;;;;;;;26.42;20.20;;;;;;;12.51;49.65;100279.56;20761985;28;20212;-79
2023/04/21 10:50:10;;;;;;;24.75;17.98;;;;;;;12.63;48.31;100262.53;20756785;28;20189;-81
2023/04/21 11:00:21;;;;;;;27.88;19.27;;;;;;;12.47;49.86;100258.78;20679036;28;20212;-80
2023/04/21 11:10:24;;;;;;;22.58;18.40;;;;;;;12.12;49.91;100252.81;20722555;28;20216;-81
2023/04/21 11:20:26;;;;;;;20.85;17.63;;;;;;;12.17;52.11;100244.88;20719783;28;20273;-88
2023/04/21 11:30:32;;;;;;;23.20;18.50;;;;;;;12.71;48.35;100216.25;20735124;28;20288;-81
2023/04/21 11:40:47;;;;;;;25.75;18.55;;;;;;;12.65;48.94;100200.72;20742158;28;20225;-81
2023/04/21 11:50:49;;;;;;;24.13;18.38;;;;;;;12.70;48.02;100189.94;20704112;28;20212;-80
2023/04/21 12:00:51;;;;;;;20.85;17.48;;;;;;;13.39;46.10;100173.63;20737026;28;20217;-80
2023/04/21 12:10:54;;;;;;;22.77;17.90;;;;;;;12.76;49.55;100162.19;20751447;28;20298;-83
2023/04/21 12:21:00;;;;;;;21.42;17.70;;;;;;;13.94;44.17;100166.09;20747034;28;20220;-80
2023/04/21 12:31:02;;;;;;;21.23;17.20;;;;;;;14.21;44.44;100148.09;20726111;28;20197;-89
2023/04/21 12:41:04;;;;;;;19.15;16.08;;;;;;;13.89;45.52;100127.47;20735679;28;20205;-81
2023/04/21 12:51:07;;;;;;;20.40;16.52;;;;;;;14.20;43.29;100115.22;20721933;28;20197;-80
2023/04/21 13:01:10;;;;;;;24.77;16.88;;;;;;;14.19;43.65;100116.41;20735659;28;20306;-81
2023/04/21 13:11:13;;;;;;;20.33;17.05;;;;;;;14.55;42.86;100088.75;20749137;28;20229;-81
2023/04/21 13:21:15;;;;;;;21.52;15.50;;;;;;;14.61;43.51;100070.22;20754855;28;20684;-81
2023/04/21 13:31:17;;;;;;;16.73;13.25;;;;;;;14.55;41.81;100049.81;20745360;28;20263;-82
2023/04/21 13:41:19;;;;;;;13.93;11.75;;;;;;;15.08;40.44;100032.91;20724237;28;20503;-80
2023/04/21 13:51:21;;;;;;;15.02;10.63;;;;;;;15.04;40.59;100010.09;20715877;28;20197;-80
2023/04/21 14:01:23;;;;;;;13.43;9.68;;;;;;;14.65;39.79;99985.88;20743624;28;20217;-80
2023/04/21 14:11:26;;;;;;;11.93;9.13;;;;;;;15.53;38.02;99975.16;20727172;28;20705;-82
2023/04/21 14:21:28;;;;;;;14.10;9.50;;;;;;;15.40;39.41;99968.06;20689765;28;20221;-86
2023/04/21 14:31:30;;;;;;;11.57;8.02;;;;;;;16.82;37.90;99932.69;20729053;28;20545;-87
2023/04/21 14:41:32;;;;;;;12.75;8.48;;;;;;;16.23;37.89;99926.81;20735594;28;20637;-80
2023/04/21 14:51:36;;;;;;;12.50;7.97;;;;;;;16.41;37.46;99911.94;20753756;28;20197;-83
2023/04/21 15:01:39;;;;;;;16.52;7.55;;;;;;;16.30;37.98;99909.00;20683601;28;20218;-82
2023/04/21 15:11:41;;;;;;;11.98;7.28;;;;;;;15.79;38.24;99903.94;20748762;28;20311;-82
2023/04/21 15:21:43;;;;;;;9.95;7.97;;;;;;;14.89;40.07;99902.25;20715332;28;20221;-82
2023/04/21 15:31:45;;;;;;;11.77;8.25;;;;;;;15.13;41.10;99888.41;20761160;28;20192;-81
2023/04/21 15:41:48;;;;;;;13.38;9.65;;;;;;;15.38;40.25;99883.09;20714421;28;20637;-83
2023/04/21 15:51:50;;;;;;;13.07;9.40;;;;;;;15.59;39.65;99868.31;20715795;28;20232;-82
2023/04/21 16:01:53;;;;;;;11.05;9.70;;;;;;;15.58;41.52;99860.97;20709142;28;20262;-80
2023/04/21 16:11:55;;;;;;;14.18;11.27;;;;;;;15.67;39.22;99844.41;20717216;28;20252;-84
2023/04/21 16:21:58;;;;;;;13.73;11.48;;;;;;;15.61;40.01;99822.41;20743592;28;20214;-85
2023/04/21 16:32:00;;;;;;;14.52;11.60;;;;;;;15.78;40.50;99816.91;20689915;28;20225;-84
2023/04/21 16:42:02;;;;;;;16.23;11.63;;;;;;;15.77;41.13;99795.34;20716123;28;20315;-84
2023/04/21 16:52:05;;;;;;;12.38;11.07;;;;;;;15.89;40.35;99785.72;20733334;28;20595;-82
2023/04/21 17:02:07;;;;;;;17.10;13.23;;;;;;;15.70;41.39;99775.34;20728445;28;20276;-83
2023/04/21 17:12:10;;;;;;;18.50;14.52;;;;;;;15.60;42.62;99787.44;20638444;28;20579;-83
2023/04/21 17:22:12;;;;;;;22.17;15.60;;;;;;;15.31;43.09;99779.78;20649081;28;20256;-79
2023/04/21 17:32:14;;;;;;;21.38;15.60;;;;;;;15.10;45.06;99775.47;20623274;28;20248;-79
2023/04/21 17:42:16;;;;;;;21.65;16.48;;;;;;;14.59;47.14;99777.19;20650390;28;20264;-80
2023/04/21 17:52:19;;;;;;;21.25;16.20;;;;;;;14.68;46.29;99757.81;20632999;28;20194;-81
2023/04/21 18:02:21;;;;;;;21.13;15.25;;;;;;;14.48;48.08;99762.81;20653834;28;20221;-80
2023/04/21 18:12:23;;;;;;;20.25;16.05;;;;;;;13.93;49.83;99761.50;20727897;28;20228;-79
2023/04/21 18:22:26;;;;;;;24.42;17.50;;;;;;;13.80;50.74;99761.69;20714875;28;20225;-80
2023/04/21 18:32:29;;;;;;;24.55;17.70;;;;;;;13.50;51.38;99766.38;20728539;28;20189;-78
2023/04/21 18:42:32;;;;;;;36.85;25.98;;;;;;;13.28;51.64;99761.47;20717665;28;20217;-79
2023/04/21 18:52:34;;;;;;;23.05;18.02;;;;;;;12.70;53.94;99772.75;20710613;28;20491;-79
2023/04/21 19:02:37;;;;;;;28.83;17.80;;;;;;;12.75;53.73;99778.16;20697169;28;20205;-79
2023/04/21 19:12:40;;;;;;;24.05;18.42;;;;;;;12.43;54.58;99791.56;20678460;28;20213;-79
2023/04/21 19:22:43;;;;;;;21.23;17.27;;;;;;;12.14;55.50;99784.38;20704338;28;20277;-79
2023/04/21 19:32:45;;;;;;;23.08;17.40;;;;;;;11.62;56.12;99791.13;20706527;28;20216;-81
2023/04/21 19:42:47;;;;;;;24.60;17.20;;;;;;;11.57;55.71;99782.91;20758431;28;21112;-80
2023/04/21 19:52:49;;;;;;;25.85;19.02;;;;;;;11.85;55.23;99770.69;20720300;28;20185;-82
2023/04/21 20:02:52;;;;;;;25.35;19.27;;;;;;;11.74;56.02;99761.94;20723102;28;20221;-79
2023/04/21 20:12:54;;;;;;;24.10;19.83;;;;;;;12.00;54.86;99789.69;20736905;28;20218;-80
2023/04/21 20:22:56;;;;;;;5.47;4.20;;;;;;;10.36;54.36;99896.13;20719950;28;20240;-79
2023/04/21 20:32:58;;;;;;;5.40;4.00;;;;;;;11.34;53.67;99869.44;20726791;28;20194;-79
2023/04/21 20:43:02;;;;;;;3.43;3.13;;;;;;;11.14;53.28;99830.88;20724414;28;20221;-78
2023/04/21 20:53:06;;;;;;;3.43;2.40;;;;;;;11.68;51.43;99735.94;20709731;28;20227;-79
2023/04/21 21:03:08;;;;;;;2.15;1.90;;;;;;;11.62;50.90;99798.78;20730411;28;20531;-79
2023/04/21 21:13:11;;;;;;;2.33;2.00;;;;;;;11.28;52.97;99817.16;20740019;28;20233;-80
2023/04/21 21:23:13;;;;;;;1.60;1.50;;;;;;;11.63;50.69;99809.72;20714807;28;20228;-78
2023/04/21 21:33:15;;;;;;;5.28;2.70;;;;;;;11.56;52.03;99820.81;20719474;28;20228;-79
2023/04/21 21:43:17;;;;;;;3.67;2.67;;;;;;;10.85;54.26;99844.16;20704827;28;20217;-79
2023/04/21 21:53:19;;;;;;;4.13;2.60;;;;;;;10.81;56.28;99848.84;20709031;28;20260;-81
2023/04/21 22:03:21;;;;;;;3.30;2.47;;;;;;;10.97;54.68;99821.53;20729774;28;20249;-78
2023/04/21 22:13:24;;;;;;;2.78;2.50;;;;;;;11.05;54.10;99818.91;20724037;28;20229;-80
2023/04/21 22:23:26;;;;;;;3.70;2.67;;;;;;;10.74;53.71;99817.56;20704166;28;20225;-79
2023/04/21 22:33:28;;;;;;;2.78;2.25;;;;;;;10.60;53.73;99812.28;20727807;28;20194;-80
2023/04/21 22:43:30;;;;;;;3.37;3.07;;;;;;;10.35;54.16;99804.19;20685880;28;20525;-80
2023/04/21 22:53:32;;;;;;;4.40;2.93;;;;;;;10.54;55.00;99821.38;20734988;28;20201;-80
2023/04/21 23:03:34;;;;;;;4.00;2.92;;;;;;;10.10;55.39;99820.28;20730680;28;20525;-79
2023/04/21 23:13:37;;;;;;;3.72;3.35;;;;;;;9.64;55.79;99818.72;20664012;28;20279;-78
2023/04/21 23:23:39;;;;;;;3.20;2.90;;;;;;;9.21;57.15;99815.13;20653102;28;20662;-80
2023/04/21 23:33:41;;;;;;;5.97;4.55;;;;;;;8.76;59.04;99848.81;20661911;28;20260;-81
2023/04/21 23:43:43;;;;;;;7.00;3.27;;;;;;;8.97;57.07;99834.72;20666245;28;20221;-79
2023/04/21 23:53:45;;;;;;;5.32;4.18;;;;;;;9.20;57.27;99815.47;20664966;28;20256;-78
